Time;durP1;ratioP1;P1;durP2;ratioP2;P2;SDS_P1;SDS_P2;PMS_P1;PMS_P2;Temp;Humidity;BMP_temperature;BMP_pressure;BME280_temperature;BME280_humidity;BME280_pressure;Samples;Min_cycle;Max_cycle;Signal;HPM_P1;HPM_P2
2023/08/30 04:46:23;;;;;;;42.35;25.45;;;;;;;;;;5433775;23;1084772;-73
2023/08/30 04:48:49;;;;;;;46.33;24.73;;;;;;;;;;4954727;29;20205;-73
2023/08/30 04:51:15;;;;;;;35.17;21.80;;;;;;;;;;4954632;29;20412;-73
2023/08/30 04:53:42;;;;;;;32.23;19.93;;;;;;;;;;4954153;29;20417;-73
2023/08/30 04:56:14;;;;;;;40.60;20.93;;;;;;;;;;4954619;28;21000;-73
2023/08/30 04:58:40;;;;;;;37.50;20.00;;;;;;;;;;4953615;29;20456;-73
2023/08/30 05:01:06;;;;;;;37.77;21.20;;;;;;;;;;4954732;29;20409;-73
2023/08/30 05:03:33;;;;;;;38.07;21.60;;;;;;;;;;4952318;28;20500;-73
2023/08/30 05:05:59;;;;;;;40.50;22.70;;;;;;;;;;4954531;28;20432;-71
2023/08/30 05:08:25;;;;;;;27.50;18.30;;;;;;;;;;4954039;29;20452;-72
2023/08/30 05:10:54;;;;;;;33.40;18.60;;;;;;;;;;4954453;29;20415;-72
2023/08/30 05:13:20;;;;;;;35.97;20.03;;;;;;;;;;4954146;28;20409;-73
2023/08/30 05:15:46;;;;;;;39.00;21.27;;;;;;;;;;4952508;29;20462;-72
2023/08/30 05:18:12;;;;;;;37.10;21.97;;;;;;;;;;4952795;28;20440;-72
2023/08/30 05:20:38;;;;;;;32.00;18.67;;;;;;;;;;4937275;28;20975;-72
2023/08/30 05:23:04;;;;;;;34.47;20.30;;;;;;;;;;4934454;29;20414;-72
2023/08/30 05:25:30;;;;;;;29.27;18.37;;;;;;;;;;4953715;29;20491;-72
2023/08/30 05:27:56;;;;;;;32.70;19.50;;;;;;;;;;4952618;29;20452;-73
2023/08/30 05:30:22;;;;;;;32.33;18.10;;;;;;;;;;4954263;29;20409;-72
2023/08/30 05:32:47;;;;;;;31.57;18.20;;;;;;;;;;4955576;29;20413;-72
2023/08/30 05:35:13;;;;;;;28.30;17.33;;;;;;;;;;4953956;29;20511;-73
2023/08/30 05:37:39;;;;;;;31.77;17.70;;;;;;;;;;4954133;29;20409;-73
2023/08/30 05:40:06;;;;;;;26.80;17.00;;;;;;;;;;4954009;29;20925;-73
2023/08/30 05:42:32;;;;;;;32.87;20.07;;;;;;;;;;4954040;29;20802;-72
2023/08/30 05:44:58;;;;;;;29.00;17.83;;;;;;;;;;4953675;29;20424;-73
2023/08/30 05:47:24;;;;;;;25.73;15.33;;;;;;;;;;4953943;29;20536;-72
2023/08/30 05:49:50;;;;;;;32.80;18.30;;;;;;;;;;4953750;29;20464;-72
2023/08/30 05:52:19;;;;;;;25.47;15.83;;;;;;;;;;4954054;29;20407;-72
2023/08/30 05:54:45;;;;;;;25.23;15.03;;;;;;;;;;4954269;29;20421;-72
2023/08/30 05:57:11;;;;;;;25.60;16.10;;;;;;;;;;4955383;29;20844;-73
2023/08/30 05:59:37;;;;;;;26.10;16.37;;;;;;;;;;4955569;29;20526;-73
2023/08/30 06:02:04;;;;;;;28.90;14.83;;;;;;;;;;4954376;29;20448;-72
2023/08/30 06:04:30;;;;;;;31.23;19.00;;;;;;;;;;4954318;28;20416;-73
2023/08/30 06:06:56;;;;;;;26.53;16.97;;;;;;;;;;4953690;29;20846;-72
2023/08/30 06:09:22;;;;;;;23.67;15.73;;;;;;;;;;4953073;29;20464;-72
2023/08/30 06:11:48;;;;;;;24.30;14.90;;;;;;;;;;4952922;28;20480;-72
2023/08/30 06:14:14;;;;;;;24.33;16.10;;;;;;;;;;4956018;28;20417;-72
2023/08/30 06:16:44;;;;;;;21.60;14.27;;;;;;;;;;4957712;29;20433;-73
2023/08/30 06:19:10;;;;;;;20.53;15.00;;;;;;;;;;4957269;28;20990;-72
2023/08/30 06:21:36;;;;;;;25.07;14.87;;;;;;;;;;4958078;29;20412;-72
2023/08/30 06:24:03;;;;;;;19.83;13.63;;;;;;;;;;4957498;29;20536;-72
2023/08/30 06:26:29;;;;;;;23.53;14.67;;;;;;;;;;4957771;28;20439;-72
2023/08/30 06:28:55;;;;;;;25.10;14.13;;;;;;;;;;4955713;29;20834;-72
2023/08/30 06:31:20;;;;;;;20.43;14.10;;;;;;;;;;4957226;29;20464;-72
2023/08/30 06:33:48;;;;;;;24.03;15.80;;;;;;;;;;4957202;29;20475;-72
2023/08/30 06:36:16;;;;;;;23.87;14.00;;;;;;;;;;4957955;28;20940;-72
2023/08/30 06:38:42;;;;;;;16.93;12.63;;;;;;;;;;4956917;28;20837;-72
2023/08/30 06:41:08;;;;;;;19.83;14.27;;;;;;;;;;4957508;29;20453;-73
2023/08/30 06:43:34;;;;;;;23.60;15.37;;;;;;;;;;4957205;29;20417;-72
2023/08/30 06:46:00;;;;;;;21.13;13.17;;;;;;;;;;4957510;29;20533;-71
2023/08/30 06:48:26;;;;;;;22.30;13.90;;;;;;;;;;4957205;29;20957;-73
2023/08/30 06:50:52;;;;;;;22.47;14.33;;;;;;;;;;4966469;29;20409;-72
2023/08/30 06:53:18;;;;;;;20.10;12.83;;;;;;;;;;4961597;29;20413;-71
2023/08/30 06:55:44;;;;;;;20.93;13.47;;;;;;;;;;4957065;29;20428;-71
2023/08/30 06:58:10;;;;;;;13.17;10.50;;;;;;;;;;4956638;29;20420;-72
2023/08/30 07:00:36;;;;;;;16.73;10.20;;;;;;;;;;4957088;29;20516;-71
2023/08/30 07:03:02;;;;;;;18.67;12.10;;;;;;;;;;4957063;29;20428;-72
2023/08/30 07:05:28;;;;;;;16.47;11.63;;;;;;;;;;4957356;29;20436;-72
2023/08/30 07:07:54;;;;;;;17.60;11.97;;;;;;;;;;4956543;29;20495;-72
2023/08/30 07:10:20;;;;;;;18.53;12.40;;;;;;;;;;4956819;29;20491;-72
2023/08/30 07:12:48;;;;;;;20.23;12.50;;;;;;;;;;4956564;29;20436;-72
2023/08/30 07:15:16;;;;;;;20.03;12.00;;;;;;;;;;4958761;28;20425;-71
2023/08/30 07:17:42;;;;;;;15.60;10.37;;;;;;;;;;4949570;28;20451;-72
2023/08/30 07:20:08;;;;;;;18.67;10.30;;;;;;;;;;4964674;28;20424;-72
2023/08/30 07:22:34;;;;;;;17.43;10.80;;;;;;;;;;4957662;28;20475;-73
2023/08/30 07:25:01;;;;;;;14.87;10.13;;;;;;;;;;4955765;28;20544;-72
2023/08/30 07:27:28;;;;;;;14.77;10.33;;;;;;;;;;4954923;29;20448;-72
2023/08/30 07:29:54;;;;;;;12.97;10.03;;;;;;;;;;4954652;29;20464;-72
2023/08/30 07:32:20;;;;;;;18.33;10.73;;;;;;;;;;4961085;29;20425;-72
2023/08/30 07:34:46;;;;;;;14.20;10.13;;;;;;;;;;4971550;29;20413;-72
2023/08/30 07:37:21;;;;;;;16.87;10.40;;;;;;;;;;4964275;29;20935;-72
2023/08/30 07:39:47;;;;;;;15.43;10.33;;;;;;;;;;4958677;29;20411;-72
2023/08/30 07:42:14;;;;;;;18.80;10.63;;;;;;;;;;4959954;29;20496;-72
2023/08/30 07:44:40;;;;;;;15.10;10.50;;;;;;;;;;4961890;28;20436;-72
2023/08/30 07:47:06;;;;;;;15.87;9.93;;;;;;;;;;4958425;29;20957;-72
2023/08/30 07:49:32;;;;;;;14.77;10.33;;;;;;;;;;4958347;29;20531;-73
2023/08/30 07:51:58;;;;;;;20.43;9.53;;;;;;;;;;4956943;29;20429;-73
2023/08/30 07:54:24;;;;;;;16.80;10.33;;;;;;;;;;4953169;29;20433;-71
2023/08/30 07:56:50;;;;;;;15.70;9.77;;;;;;;;;;4954081;29;20445;-72
2023/08/30 07:59:16;;;;;;;15.33;10.73;;;;;;;;;;4956445;29;20445;-72
2023/08/30 08:01:42;;;;;;;14.80;10.10;;;;;;;;;;4956394;29;20486;-72
2023/08/30 08:04:08;;;;;;;20.33;10.30;;;;;;;;;;4956613;29;20479;-72
2023/08/30 08:06:34;;;;;;;18.07;9.80;;;;;;;;;;4954674;28;20457;-72
2023/08/30 08:09:00;;;;;;;19.87;10.80;;;;;;;;;;4956278;29;20795;-73
2023/08/30 08:11:26;;;;;;;24.27;10.90;;;;;;;;;;4955837;29;20416;-73
2023/08/30 08:13:52;;;;;;;17.43;10.33;;;;;;;;;;4955563;29;20408;-72
2023/08/30 08:16:18;;;;;;;13.23;9.00;;;;;;;;;;4954955;29;20443;-73
2023/08/30 08:18:44;;;;;;;17.10;10.03;;;;;;;;;;4954993;29;20434;-74
2023/08/30 08:21:10;;;;;;;17.13;10.43;;;;;;;;;;4955843;29;20413;-72
2023/08/30 08:23:36;;;;;;;13.60;8.97;;;;;;;;;;4955829;29;20413;-72
2023/08/30 08:26:05;;;;;;;11.90;8.93;;;;;;;;;;4955373;29;21005;-72
2023/08/30 08:28:31;;;;;;;11.80;8.30;;;;;;;;;;4955095;29;20612;-72
2023/08/30 08:30:57;;;;;;;13.13;8.07;;;;;;;;;;4954037;29;20445;-72
2023/08/30 08:33:23;;;;;;;13.13;8.63;;;;;;;;;;4955303;29;20456;-72
2023/08/30 08:35:50;;;;;;;10.93;8.00;;;;;;;;;;4953788;29;20540;-72
2023/08/30 08:38:16;;;;;;;18.43;7.90;;;;;;;;;;4955036;28;20906;-73
2023/08/30 08:40:42;;;;;;;12.30;8.03;;;;;;;;;;4954839;29;20439;-72
2023/08/30 08:43:10;;;;;;;12.53;7.07;;;;;;;;;;4955227;29;20444;-72
2023/08/30 08:45:36;;;;;;;14.23;7.97;;;;;;;;;;4954080;29;20464;-73
2023/08/30 08:48:05;;;;;;;11.87;7.60;;;;;;;;;;4955187;29;20488;-72
2023/08/30 08:50:58;;;;;;;13.33;7.67;;;;;;;;;;4954785;29;20429;-73
2023/08/30 08:53:24;;;;;;;10.63;7.00;;;;;;;;;;4955348;29;20499;-73
2023/08/30 08:55:51;;;;;;;11.77;6.67;;;;;;;;;;4956823;29;20421;-72
2023/08/30 08:58:17;;;;;;;8.10;5.47;;;;;;;;;;4956495;29;20432;-72
2023/08/30 09:00:46;;;;;;;8.43;5.40;;;;;;;;;;4954340;29;20425;-72
2023/08/30 09:03:12;;;;;;;5.70;5.10;;;;;;;;;;4953141;29;20429;-73
2023/08/30 09:05:39;;;;;;;7.50;5.47;;;;;;;;;;4954666;29;20432;-74
2023/08/30 09:08:05;;;;;;;7.37;5.20;;;;;;;;;;4950005;29;20476;-72
2023/08/30 09:10:35;;;;;;;7.80;4.70;;;;;;;;;;4953047;29;20424;-73
2023/08/30 09:13:02;;;;;;;8.40;5.30;;;;;;;;;;4950677;29;20429;-69
2023/08/30 09:15:34;;;;;;;11.67;4.83;;;;;;;;;;4934834;29;20529;-68
2023/08/30 09:18:01;;;;;;;6.30;4.47;;;;;;;;;;4938073;29;20437;-68
2023/08/30 09:20:27;;;;;;;7.20;4.10;;;;;;;;;;4943592;28;20432;-68
2023/08/30 09:22:53;;;;;;;6.90;4.33;;;;;;;;;;4944149;28;20832;-70
2023/08/30 09:25:25;;;;;;;7.57;4.80;;;;;;;;;;4935858;29;20776;-69
2023/08/30 09:27:52;;;;;;;7.27;4.10;;;;;;;;;;4952584;29;20425;-68
2023/08/30 09:30:24;;;;;;;8.53;3.90;;;;;;;;;;4954818;29;20501;-67
2023/08/30 09:32:50;;;;;;;4.90;4.23;;;;;;;;;;4968281;29;20445;-68
2023/08/30 09:35:17;;;;;;;6.20;4.20;;;;;;;;;;4958685;29;20417;-70
2023/08/30 09:37:48;;;;;;;9.40;4.57;;;;;;;;;;4954438;29;20413;-71
2023/08/30 09:40:22;;;;;;;5.50;4.50;;;;;;;;;;4954427;29;20424;-71
2023/08/30 09:42:48;;;;;;;6.27;3.70;;;;;;;;;;4954717;29;20401;-72
2023/08/30 09:45:25;;;;;;;8.70;3.47;;;;;;;;;;4953407;29;20416;-73
2023/08/30 09:47:51;;;;;;;5.57;3.90;;;;;;;;;;4945505;29;21363;-71
2023/08/30 09:50:21;;;;;;;4.50;3.73;;;;;;;;;;4945901;28;20517;-71
2023/08/30 09:52:51;;;;;;;6.00;3.50;;;;;;;;;;4935285;29;20410;-72
2023/08/30 09:55:18;;;;;;;3.83;3.30;;;;;;;;;;4953280;28;20588;-72
2023/08/30 09:57:45;;;;;;;8.33;3.60;;;;;;;;;;4953575;29;20436;-72
2023/08/30 10:00:13;;;;;;;3.73;3.00;;;;;;;;;;4953392;29;20434;-72
2023/08/30 10:02:43;;;;;;;6.13;3.73;;;;;;;;;;4958522;29;20511;-72
2023/08/30 10:05:12;;;;;;;5.87;3.30;;;;;;;;;;4955814;29;20433;-71
2023/08/30 10:07:39;;;;;;;4.30;3.60;;;;;;;;;;4941004;29;20819;-72
2023/08/30 10:10:05;;;;;;;8.50;3.67;;;;;;;;;;4946391;28;20469;-72
2023/08/30 10:12:36;;;;;;;4.07;3.63;;;;;;;;;;4938192;28;20493;-72
2023/08/30 10:15:08;;;;;;;5.67;3.90;;;;;;;;;;4934977;29;20417;-72
2023/08/30 10:17:37;;;;;;;4.47;3.37;;;;;;;;;;4937575;29;20503;-71
2023/08/30 10:20:06;;;;;;;8.37;3.87;;;;;;;;;;4953734;29;20420;-73
2023/08/30 10:22:35;;;;;;;5.27;3.40;;;;;;;;;;4954074;29;20424;-72
2023/08/30 10:25:04;;;;;;;3.70;3.10;;;;;;;;;;4953378;29;20898;-72
2023/08/30 10:27:33;;;;;;;4.63;3.90;;;;;;;;;;4953336;28;20512;-72
2023/08/30 10:30:00;;;;;;;4.03;3.03;;;;;;;;;;4941406;29;20978;-72
2023/08/30 10:32:26;;;;;;;5.43;3.73;;;;;;;;;;4933931;29;20516;-73
2023/08/30 10:34:51;;;;;;;3.40;3.17;;;;;;;;;;4935699;29;20417;-72
2023/08/30 10:37:31;;;;;;;4.40;3.03;;;;;;;;;;4945917;29;20444;-73
2023/08/30 10:40:03;;;;;;;4.70;3.50;;;;;;;;;;4953243;28;20464;-72
2023/08/30 10:42:31;;;;;;;5.83;2.67;;;;;;;;;;4945531;29;20433;-71
2023/08/30 10:45:07;;;;;;;5.73;3.37;;;;;;;;;;4933579;29;20438;-73
2023/08/30 10:47:37;;;;;;;4.07;2.93;;;;;;;;;;4935031;29;21033;-71
2023/08/30 10:50:11;;;;;;;8.13;3.40;;;;;;;;;;4948279;29;20849;-71
2023/08/30 10:52:39;;;;;;;4.73;3.60;;;;;;;;;;4950979;29;20796;-72
2023/08/30 10:55:16;;;;;;;4.40;3.30;;;;;;;;;;4953373;28;20416;-72
2023/08/30 11:00:31;;;;;;;4.60;3.23;;;;;;;;;;4903734;29;20999;-75
2023/08/30 11:02:57;;;;;;;6.00;3.50;;;;;;;;;;4918353;29;20406;-77
2023/08/30 11:05:25;;;;;;;6.70;3.30;;;;;;;;;;4918180;29;20968;-78
2023/08/30 11:07:53;;;;;;;5.70;3.40;;;;;;;;;;4918358;29;20414;-76
2023/08/30 11:10:20;;;;;;;6.70;3.70;;;;;;;;;;4896072;29;20448;-76
2023/08/30 11:12:50;;;;;;;4.77;3.30;;;;;;;;;;4912565;29;20427;-70
2023/08/30 11:15:16;;;;;;;3.60;3.33;;;;;;;;;;4899618;29;20419;-71
2023/08/30 11:17:43;;;;;;;5.60;3.10;;;;;;;;;;4902298;29;20786;-72
2023/08/30 11:20:11;;;;;;;6.30;3.50;;;;;;;;;;4904670;29;20462;-72
2023/08/30 11:22:38;;;;;;;2.50;2.33;;;;;;;;;;4916484;29;20776;-71
2023/08/30 11:25:04;;;;;;;2.70;2.47;;;;;;;;;;4918138;29;20421;-72
2023/08/30 11:27:30;;;;;;;7.13;3.47;;;;;;;;;;4900068;29;20427;-72
2023/08/30 11:30:00;;;;;;;4.63;3.00;;;;;;;;;;4899235;29;20543;-73
2023/08/30 11:32:27;;;;;;;3.30;2.53;;;;;;;;;;4900871;29;21000;-72
2023/08/30 11:34:57;;;;;;;6.20;3.00;;;;;;;;;;4899179;29;20519;-73
2023/08/30 11:37:26;;;;;;;4.93;2.67;;;;;;;;;;4901108;29;20459;-73
2023/08/30 11:39:53;;;;;;;2.70;2.57;;;;;;;;;;4890600;29;20456;-74
2023/08/30 11:42:19;;;;;;;3.27;2.40;;;;;;;;;;4912912;29;20441;-74
2023/08/30 11:44:46;;;;;;;3.47;2.97;;;;;;;;;;4917648;29;20442;-74
2023/08/30 11:47:19;;;;;;;5.53;2.80;;;;;;;;;;4931984;29;20426;-73
2023/08/30 11:49:53;;;;;;;8.20;3.40;;;;;;;;;;4916961;29;20470;-73
2023/08/30 11:52:20;;;;;;;6.10;3.73;;;;;;;;;;4900951;29;20501;-73
2023/08/30 11:54:47;;;;;;;7.30;4.40;;;;;;;;;;4898406;29;20503;-73
2023/08/30 11:57:14;;;;;;;5.70;4.53;;;;;;;;;;4897695;29;20427;-73
2023/08/30 11:59:41;;;;;;;9.13;5.53;;;;;;;;;;4896287;29;20462;-73
2023/08/30 12:02:08;;;;;;;10.10;6.00;;;;;;;;;;4899017;29;20424;-73
2023/08/30 12:04:40;;;;;;;13.27;6.10;;;;;;;;;;4896183;29;20431;-73
2023/08/30 12:07:07;;;;;;;7.53;6.23;;;;;;;;;;4898790;29;20779;-73
2023/08/30 12:09:34;;;;;;;10.57;6.40;;;;;;;;;;4896791;29;20802;-73
2023/08/30 12:12:12;;;;;;;6.80;5.80;;;;;;;;;;4897910;29;20416;-73
2023/08/30 12:14:39;;;;;;;7.77;5.73;;;;;;;;;;4893882;29;21003;-73
2023/08/30 12:17:08;;;;;;;6.77;5.50;;;;;;;;;;4879330;29;20929;-73
2023/08/30 12:19:41;;;;;;;7.00;5.20;;;;;;;;;;4877407;29;20474;-73
2023/08/30 12:22:08;;;;;;;9.37;6.03;;;;;;;;;;4896438;29;20830;-73
2023/08/30 12:24:46;;;;;;;8.03;6.20;;;;;;;;;;4914458;29;20448;-73
2023/08/30 12:27:13;;;;;;;8.80;5.50;;;;;;;;;;4917004;29;20429;-72
2023/08/30 12:29:39;;;;;;;9.83;5.87;;;;;;;;;;4916634;29;20832;-73
2023/08/30 12:32:06;;;;;;;6.87;5.30;;;;;;;;;;4916850;29;20414;-72
2023/08/30 12:34:32;;;;;;;7.23;4.77;;;;;;;;;;4914928;29;20433;-72
2023/08/30 12:36:58;;;;;;;7.97;5.87;;;;;;;;;;4916856;29;20747;-72
2023/08/30 12:39:24;;;;;;;8.17;5.30;;;;;;;;;;4917134;29;20951;-71
2023/08/30 12:41:50;;;;;;;8.03;5.47;;;;;;;;;;4918958;29;20414;-72
2023/08/30 12:44:16;;;;;;;5.80;5.10;;;;;;;;;;4903768;29;20446;-72
2023/08/30 12:46:42;;;;;;;5.20;4.57;;;;;;;;;;4898994;29;20427;-73
2023/08/30 12:49:08;;;;;;;8.20;6.00;;;;;;;;;;4897850;29;20459;-72
2023/08/30 12:51:34;;;;;;;5.67;5.17;;;;;;;;;;4899046;29;20427;-72
2023/08/30 12:54:00;;;;;;;9.80;4.93;;;;;;;;;;4898892;29;21048;-72
2023/08/30 12:56:27;;;;;;;6.73;5.03;;;;;;;;;;4897971;29;20941;-73
2023/08/30 12:58:53;;;;;;;4.50;3.80;;;;;;;;;;4897124;29;20471;-73
2023/08/30 13:01:19;;;;;;;6.77;4.70;;;;;;;;;;4898433;29;20423;-73
2023/08/30 13:03:45;;;;;;;5.97;4.80;;;;;;;;;;4906755;29;20434;-73
2023/08/30 13:06:11;;;;;;;6.60;5.00;;;;;;;;;;4916173;29;20425;-72
2023/08/30 13:08:37;;;;;;;13.40;4.10;;;;;;;;;;4915926;29;20531;-73
2023/08/30 13:11:02;;;;;;;8.73;4.53;;;;;;;;;;4916197;29;20444;-73
2023/08/30 13:13:28;;;;;;;21.90;16.43;;;;;;;;;;4914529;29;20431;-73
2023/08/30 13:15:54;;;;;;;7.07;4.37;;;;;;;;;;4916211;29;20411;-73
2023/08/30 13:18:21;;;;;;;4.83;3.47;;;;;;;;;;4915779;29;20521;-73
2023/08/30 13:20:47;;;;;;;3.87;3.23;;;;;;;;;;4913627;29;20474;-72
2023/08/30 13:23:13;;;;;;;3.90;3.30;;;;;;;;;;4906263;29;20914;-72
2023/08/30 13:25:42;;;;;;;3.40;3.10;;;;;;;;;;4897170;29;20909;-71
2023/08/30 13:28:08;;;;;;;5.87;3.70;;;;;;;;;;4895414;29;20451;-72
2023/08/30 13:30:34;;;;;;;7.53;4.57;;;;;;;;;;4896804;29;20419;-72
2023/08/30 13:33:00;;;;;;;6.93;3.87;;;;;;;;;;4901471;29;20923;-72
2023/08/30 13:35:26;;;;;;;5.60;3.93;;;;;;;;;;4915385;29;20477;-72
2023/08/30 13:37:52;;;;;;;5.47;3.63;;;;;;;;;;4915558;29;20877;-72
2023/08/30 13:40:18;;;;;;;8.60;4.27;;;;;;;;;;4915727;29;20423;-72
2023/08/30 13:42:44;;;;;;;3.80;3.30;;;;;;;;;;4910954;29;20592;-71
2023/08/30 13:45:10;;;;;;;8.63;4.00;;;;;;;;;;4897657;29;20438;-72
2023/08/30 13:47:36;;;;;;;6.73;3.67;;;;;;;;;;4896551;29;20460;-72
2023/08/30 13:50:04;;;;;;;4.20;3.27;;;;;;;;;;4896296;29;20566;-71
2023/08/30 13:52:30;;;;;;;7.27;4.20;;;;;;;;;;4896654;29;20411;-72
2023/08/30 13:54:56;;;;;;;8.93;4.43;;;;;;;;;;4906494;29;20538;-71
2023/08/30 13:57:22;;;;;;;6.83;3.70;;;;;;;;;;4915183;29;20523;-72
2023/08/30 13:59:48;;;;;;;5.30;3.70;;;;;;;;;;4915176;29;20525;-72
2023/08/30 14:02:14;;;;;;;6.70;4.40;;;;;;;;;;4915537;29;20893;-74
2023/08/30 14:04:40;;;;;;;5.57;3.57;;;;;;;;;;4907188;29;20432;-72
2023/08/30 14:07:06;;;;;;;8.77;3.80;;;;;;;;;;4896406;29;20925;-72
2023/08/30 14:09:32;;;;;;;5.60;3.23;;;;;;;;;;4897424;29;20515;-72
2023/08/30 14:11:58;;;;;;;7.10;4.17;;;;;;;;;;4896615;29;20509;-71
2023/08/30 14:14:24;;;;;;;7.30;3.87;;;;;;;;;;4896528;29;20423;-71
2023/08/30 14:16:50;;;;;;;5.13;3.30;;;;;;;;;;4896533;29;20566;-72
2023/08/30 14:19:16;;;;;;;8.23;4.07;;;;;;;;;;4896612;29;20550;-72
2023/08/30 14:21:42;;;;;;;6.40;3.60;;;;;;;;;;4896374;29;20846;-72
2023/08/30 14:24:09;;;;;;;6.23;3.57;;;;;;;;;;4896289;29;20738;-72
2023/08/30 14:26:35;;;;;;;5.70;3.17;;;;;;;;;;4895230;29;20443;-72
2023/08/30 14:29:00;;;;;;;5.20;3.13;;;;;;;;;;4908876;29;20542;-71
2023/08/30 14:31:27;;;;;;;6.03;3.50;;;;;;;;;;4896437;29;20412;-72
2023/08/30 14:33:56;;;;;;;7.00;3.50;;;;;;;;;;4897460;29;20419;-72
2023/08/30 14:36:22;;;;;;;3.83;3.03;;;;;;;;;;4899982;29;20969;-72
2023/08/30 14:38:48;;;;;;;6.53;3.40;;;;;;;;;;4900000;29;20439;-72
2023/08/30 14:41:15;;;;;;;8.30;3.90;;;;;;;;;;4918692;29;20932;-72
2023/08/30 14:43:42;;;;;;;8.77;3.80;;;;;;;;;;4919247;29;20445;-72
2023/08/30 14:46:08;;;;;;;6.30;3.70;;;;;;;;;;4919171;29;20422;-71
2023/08/30 14:48:34;;;;;;;4.40;3.60;;;;;;;;;;4919154;29;20497;-72
2023/08/30 14:51:00;;;;;;;6.27;3.50;;;;;;;;;;4918007;29;20433;-72
2023/08/30 14:53:26;;;;;;;7.57;3.87;;;;;;;;;;4918709;29;20419;-71
2023/08/30 14:55:52;;;;;;;5.10;3.87;;;;;;;;;;4918707;29;20773;-72
2023/08/30 14:58:18;;;;;;;8.37;3.70;;;;;;;;;;4918278;29;20446;-72
2023/08/30 15:00:44;;;;;;;5.57;3.60;;;;;;;;;;4903177;29;20431;-71
2023/08/30 15:03:10;;;;;;;8.93;4.30;;;;;;;;;;4900329;29;20415;-72
2023/08/30 15:05:36;;;;;;;8.97;4.60;;;;;;;;;;4899740;29;20429;-72
2023/08/30 15:08:02;;;;;;;6.13;4.40;;;;;;;;;;4899143;29;20427;-72
2023/08/30 15:10:28;;;;;;;13.13;4.97;;;;;;;;;;4912247;29;20874;-72
2023/08/30 15:12:54;;;;;;;8.27;4.20;;;;;;;;;;4918028;29;20430;-72
2023/08/30 15:15:20;;;;;;;7.83;4.63;;;;;;;;;;4918060;29;20492;-72
2023/08/30 15:17:47;;;;;;;7.60;4.03;;;;;;;;;;4917984;29;20804;-71
2023/08/30 15:20:13;;;;;;;5.60;3.93;;;;;;;;;;4906990;29;20431;-71
2023/08/30 15:22:40;;;;;;;6.80;4.30;;;;;;;;;;4899156;29;20450;-72
2023/08/30 15:25:06;;;;;;;8.37;4.00;;;;;;;;;;4899046;29;20490;-72
2023/08/30 15:27:33;;;;;;;9.50;4.50;;;;;;;;;;4899129;29;20415;-72
2023/08/30 15:29:59;;;;;;;6.03;3.53;;;;;;;;;;4907054;29;20549;-72
2023/08/30 15:32:25;;;;;;;10.00;4.07;;;;;;;;;;4918010;29;20501;-72
2023/08/30 15:34:51;;;;;;;5.63;4.30;;;;;;;;;;4918165;29;20414;-72
2023/08/30 15:37:17;;;;;;;6.30;4.10;;;;;;;;;;4917830;29;20927;-72
2023/08/30 15:39:43;;;;;;;8.87;3.83;;;;;;;;;;4910682;29;20463;-72
2023/08/30 15:42:10;;;;;;;6.47;3.70;;;;;;;;;;4899023;29;20442;-72
2023/08/30 15:44:36;;;;;;;6.03;3.93;;;;;;;;;;4898903;29;20419;-72
2023/08/30 15:47:02;;;;;;;4.80;3.10;;;;;;;;;;4898001;29;20912;-72
2023/08/30 15:49:28;;;;;;;4.30;3.50;;;;;;;;;;4902152;29;20477;-72
2023/08/30 15:51:54;;;;;;;3.87;2.97;;;;;;;;;;4917532;29;20414;-72
2023/08/30 15:54:20;;;;;;;6.50;4.13;;;;;;;;;;4917370;29;20418;-72
2023/08/30 15:56:46;;;;;;;6.77;3.13;;;;;;;;;;4917293;29;20422;-72
2023/08/30 15:59:12;;;;;;;11.13;3.80;;;;;;;;;;4908135;29;20531;-72
2023/08/30 16:01:38;;;;;;;5.17;3.73;;;;;;;;;;4898114;29;20801;-72
2023/08/30 16:04:04;;;;;;;4.50;2.90;;;;;;;;;;4898260;29;21028;-73
2023/08/30 16:06:30;;;;;;;7.20;3.67;;;;;;;;;;4904294;29;20438;-73
2023/08/30 16:08:56;;;;;;;6.17;4.50;;;;;;;;;;4916059;29;20630;-73
2023/08/30 16:11:22;;;;;;;3.43;2.93;;;;;;;;;;4917132;29;20419;-72
2023/08/30 16:13:48;;;;;;;5.13;3.93;;;;;;;;;;4917516;29;20482;-73
2023/08/30 16:16:14;;;;;;;6.00;4.00;;;;;;;;;;4913418;29;20427;-73
2023/08/30 16:18:40;;;;;;;5.37;3.90;;;;;;;;;;4898092;29;20510;-73
2023/08/30 16:21:06;;;;;;;3.80;2.83;;;;;;;;;;4898062;29;20411;-73
2023/08/30 16:23:32;;;;;;;6.13;3.73;;;;;;;;;;4898217;29;20419;-72
2023/08/30 16:25:59;;;;;;;7.10;4.20;;;;;;;;;;4898551;29;20972;-73
2023/08/30 16:28:25;;;;;;;5.27;3.87;;;;;;;;;;4916927;29;20462;-73
2023/08/30 16:30:51;;;;;;;4.80;3.67;;;;;;;;;;4917029;29;20411;-73
2023/08/30 16:36:21;;;;;;;9.30;4.40;;;;;;;;;;4930476;29;20431;-72
2023/08/30 16:38:48;;;;;;;5.40;3.63;;;;;;;;;;4911799;29;20447;-72
2023/08/30 16:41:14;;;;;;;6.17;3.93;;;;;;;;;;4917119;29;20414;-72
2023/08/30 16:43:40;;;;;;;4.87;4.07;;;;;;;;;;4916967;29;20415;-73
2023/08/30 16:46:06;;;;;;;5.70;3.93;;;;;;;;;;4916949;29;20904;-73
2023/08/30 16:48:32;;;;;;;4.30;3.80;;;;;;;;;;4898087;29;20479;-72
2023/08/30 16:50:58;;;;;;;7.47;3.70;;;;;;;;;;4902885;29;20450;-73
2023/08/30 16:53:24;;;;;;;4.63;3.60;;;;;;;;;;4916903;29;20493;-72
2023/08/30 16:55:50;;;;;;;4.97;3.90;;;;;;;;;;4916291;29;20501;-73
2023/08/30 16:58:16;;;;;;;5.67;4.07;;;;;;;;;;4938507;23;20513;-76
2023/08/30 17:00:42;;;;;;;7.40;3.83;;;;;;;;;;4904637;29;20447;-76
2023/08/30 17:03:07;;;;;;;4.87;3.90;;;;;;;;;;4903607;29;20408;-76
2023/08/30 17:05:38;;;;;;;6.87;4.50;;;;;;;;;;4903307;29;20419;-78
2023/08/30 17:08:04;;;;;;;9.03;4.70;;;;;;;;;;4903142;29;20463;-76
2023/08/30 17:10:30;;;;;;;6.23;4.37;;;;;;;;;;4883504;29;20460;-76
2023/08/30 17:12:57;;;;;;;4.90;3.97;;;;;;;;;;4882308;29;20424;-78
2023/08/30 17:15:24;;;;;;;6.37;4.20;;;;;;;;;;4880205;29;20730;-76
2023/08/30 17:17:50;;;;;;;7.10;4.90;;;;;;;;;;4878663;29;20424;-76
2023/08/30 17:20:16;;;;;;;7.20;4.40;;;;;;;;;;4880199;29;20515;-76
2023/08/30 17:22:42;;;;;;;6.10;4.10;;;;;;;;;;4897690;29;20519;-78
2023/08/30 17:25:08;;;;;;;7.00;4.33;;;;;;;;;;4897930;29;20809;-76
2023/08/30 17:27:35;;;;;;;7.87;4.00;;;;;;;;;;4898708;29;20420;-76
2023/08/30 17:30:02;;;;;;;7.47;4.57;;;;;;;;;;4897903;29;20463;-77
2023/08/30 17:32:29;;;;;;;8.90;4.30;;;;;;;;;;4883919;29;20527;-77
2023/08/30 17:34:54;;;;;;;9.40;4.50;;;;;;;;;;4880152;29;20412;-77
2023/08/30 17:37:20;;;;;;;6.60;4.53;;;;;;;;;;4879572;29;20424;-76
2023/08/30 17:39:46;;;;;;;5.00;3.63;;;;;;;;;;4879438;29;20491;-77
2023/08/30 17:42:12;;;;;;;7.93;4.47;;;;;;;;;;4880694;29;20963;-76
2023/08/30 17:44:39;;;;;;;7.10;4.53;;;;;;;;;;4880409;29;20421;-77
2023/08/30 17:47:05;;;;;;;12.93;5.37;;;;;;;;;;4879224;29;20483;-77
2023/08/30 17:49:31;;;;;;;6.30;4.50;;;;;;;;;;4886803;29;20467;-77
2023/08/30 17:51:57;;;;;;;6.73;4.83;;;;;;;;;;4900371;29;20442;-77
2023/08/30 17:54:23;;;;;;;7.93;5.27;;;;;;;;;;4901556;29;20416;-77
2023/08/30 17:56:50;;;;;;;8.90;5.20;;;;;;;;;;4903816;29;20491;-76
2023/08/30 17:59:16;;;;;;;9.03;5.50;;;;;;;;;;4890898;29;20472;-76
2023/08/30 18:01:43;;;;;;;7.63;5.70;;;;;;;;;;4885439;29;21050;-77
2023/08/30 18:04:09;;;;;;;8.57;5.30;;;;;;;;;;4881139;29;20447;-77
2023/08/30 18:06:35;;;;;;;12.20;6.40;;;;;;;;;;4879367;29;20520;-76
2023/08/30 18:09:01;;;;;;;9.00;5.60;;;;;;;;;;4879702;29;20472;-77
2023/08/30 18:11:26;;;;;;;10.30;5.93;;;;;;;;;;4885189;29;20429;-77
2023/08/30 18:13:52;;;;;;;13.33;5.80;;;;;;;;;;4885669;29;20420;-77
2023/08/30 18:16:23;;;;;;;11.77;6.67;;;;;;;;;;4891907;29;20492;-76
2023/08/30 18:18:49;;;;;;;13.70;6.10;;;;;;;;;;4894855;29;20432;-76
2023/08/30 18:21:16;;;;;;;14.90;7.53;;;;;;;;;;4884928;29;20428;-76
2023/08/30 18:23:45;;;;;;;11.53;6.60;;;;;;;;;;4885252;29;20416;-76
2023/08/30 18:26:11;;;;;;;15.13;7.47;;;;;;;;;;4883297;29;20653;-76
2023/08/30 18:28:37;;;;;;;9.10;6.67;;;;;;;;;;4884092;29;20479;-76
2023/08/30 18:31:03;;;;;;;8.83;6.00;;;;;;;;;;4889670;29;20749;-74
2023/08/30 18:33:29;;;;;;;14.53;5.93;;;;;;;;;;4899033;29;20465;-76
2023/08/30 18:35:55;;;;;;;10.70;6.37;;;;;;;;;;4902034;29;20421;-76
2023/08/30 18:38:21;;;;;;;8.90;6.23;;;;;;;;;;4899722;29;20432;-78
2023/08/30 18:40:47;;;;;;;12.20;6.40;;;;;;;;;;4883656;29;20448;-75
2023/08/30 18:43:13;;;;;;;9.90;6.43;;;;;;;;;;4882616;29;20964;-75
2023/08/30 18:45:44;;;;;;;8.73;6.07;;;;;;;;;;4883670;29;20469;-75
2023/08/30 18:48:10;;;;;;;8.60;5.80;;;;;;;;;;4890885;29;20451;-75
2023/08/30 18:50:40;;;;;;;9.27;5.73;;;;;;;;;;4892962;29;20552;-77
2023/08/30 18:53:06;;;;;;;8.53;5.60;;;;;;;;;;4888182;29;20985;-74
2023/08/30 18:55:32;;;;;;;5.27;4.27;;;;;;;;;;4888254;29;20515;-75
2023/08/30 18:57:58;;;;;;;7.20;5.17;;;;;;;;;;4889112;29;20864;-75
2023/08/30 19:00:24;;;;;;;7.13;4.17;;;;;;;;;;4887807;29;20551;-75
2023/08/30 19:02:50;;;;;;;7.90;5.30;;;;;;;;;;4886318;29;20451;-76
2023/08/30 19:05:16;;;;;;;7.90;5.40;;;;;;;;;;4883436;29;20516;-76
2023/08/30 19:07:43;;;;;;;11.67;6.00;;;;;;;;;;4886710;29;20432;-75
2023/08/30 19:10:09;;;;;;;11.83;5.47;;;;;;;;;;4893118;29;20486;-75
2023/08/30 19:12:35;;;;;;;18.27;7.87;;;;;;;;;;4897340;29;20427;-75
2023/08/30 19:15:02;;;;;;;15.03;7.17;;;;;;;;;;4885558;29;20938;-76
2023/08/30 19:17:28;;;;;;;7.53;5.10;;;;;;;;;;4881009;29;20476;-75
2023/08/30 19:19:54;;;;;;;10.13;5.23;;;;;;;;;;4881059;29;20440;-75
2023/08/30 19:22:20;;;;;;;13.73;6.53;;;;;;;;;;4880431;29;20443;-76
2023/08/30 19:24:47;;;;;;;8.17;5.13;;;;;;;;;;4881442;29;20428;-76